Tiempo atmosférico en la estación meteorológica de Tresviso, Cantabria (912 m.)



Fecha
DESCASC
Temp. máxima en grados centígrados (hora)
DESCASC
Temp. mínima en grados centígrados (hora)
DESCASC
Temp. media en grados centígrados
DESCASC
Racha de viento máxima en m/sg (hora)
DESCASC
Velocidad máxima media en intervalos de 10 minutos(hora)
DESCASC
Precipitaciones diarias en mm
DESCASC
Precipitaciones de 00:00 a 06:00 en mm
DESCASC
Precipitaciones de 06:00 a 12:00 en mm
DESCASC
Precipitaciones de 12:00 a 18:00 en mm
DESCASC
Precipitaciones de 18:00 a 24:00 en mm
DESCASC
22-04-2019 16.8 (16:00) 6.1 (05:10) 11.4 10.83 (23:30) 4.17 (17:20) 0 0 0 0 0
21-04-2019 13.6 (15:00) 6.9 (23:59) 10.3 9.44 (09:10) 4.17 (09:10) 0 0 0 0 0
20-04-2019 17.5 (14:20) 9.8 (06:30) 13.7 10.28 (14:30) 4.72 (15:00) 0 0 0 0 0
19-04-2019 13.9 (14:40) 6.9 (00:00) 10.4 14.72 (13:50) 7.22 (13:10) 7.6 7.4 0.2 0 0
18-04-2019 15.1 (01:10) 6.7 (00:00) 10.9 13.61 (01:00) 6.11 (20:50) 16.8 0.2 0 3.4 13.2
17-04-2019 19.7 (15:20) 11.2 (00:00) 15.5 16.11 (22:30) 7.78 (22:50) 0 0 0 0 0
16-04-2019 13.7 (16:00) 4.5 (00:00) 9.1 7.22 (21:00) 4.72 (02:10) 0.2 0.2 0 0 0
15-04-2019 17.5 (13:00) 6.5 (00:00) 12 21.39 (14:20) 11.11 (14:00) 7 0 0 3 4
14-04-2019 18.3 (15:10) 10.8 (00:00) 14.5 6.67 (07:10) 4.44 (07:20) 0 0 0 0 0
13-04-2019 17.3 (17:40) 8.4 (00:00) 12.8 5.56 (17:00) 4.17 (17:00) 0 0 0 0 0
12-04-2019 13 (17:40) 2.7 (00:00) 7.9 5.28 (17:00) 2.78 (00:30) 0 0 0 0 0
11-04-2019 8.2 (16:50) 3.9 (00:00) 6 10 (12:10) 6.67 (03:50) 1.4 0.4 0.2 0 0.8
10-04-2019 7.8 (16:00) 1.8 (00:00) 4.8 8.06 (22:50) 6.11 (23:10) 13 1.6 8.4 1.4 1.6
09-04-2019 9.4 (14:10) 4.2 (00:00) 6.8 9.72 (15:10) 6.11 (15:10) 4 0 0 0.8 3.2
08-04-2019 11.1 (14:20) 4.3 (00:00) 7.7 10 (07:50) 6.39 (07:50) 0.4 0 0.2 0.2 0
07-04-2019 10.2 (14:10) 1 (00:00) 5.6 11.39 (04:10) 6.67 (04:20) 2.8 2.2 0 0 0.6
06-04-2019 10.2 (12:10) 1.3 (00:00) 5.7 10 (18:50) 7.5 (19:00) 6 0 0 0.2 5.8
05-04-2019 11.1 (16:10) 2.3 (00:00) 6.7 8.06 (15:40) 4.17 (02:40) 0.2 0 0 0 0.2
04-04-2019 8.6 (14:40) -1.4 (-00:0) 3.6 15.56 (03:20) 8.61 (03:20) 8.6 0 7.6 1 0
03-04-2019 3.9 (00:40) -1 (-00:0) 1.5 20 (14:20) 10.83 (14:10) 8 1.6 2.6 2.6 1.2
02-04-2019 12.6 (13:40) 3.4 (00:00) 8 12.78 (23:40) 6.67 (23:40) 0.6 0 0 0 0.6
01-04-2019 13.4 (16:40) 6.3 (00:00) 9.8 8.61 (16:20) 4.44 (16:20) 0 0 0 0 0
31-03-2019 15.5 (14:00) 8.4 (00:00) 11.9 9.17 (17:30) 6.11 (17:30) 0 0 0 0 0
30-03-2019 16.5 (12:10) 8.2 (00:00) 12.3 6.94 (14:20) 4.44 (14:20) 0 0 0 0 0
29-03-2019 15.9 (15:10) 5.7 (00:00) 10.8 3.89 (15:20) 2.22 (05:20) 0 0 0 0 0
28-03-2019 13.2 (15:00) 2.9 (00:00) 8 4.44 (09:20) 3.33 (09:20) 0 0 0 0 0
27-03-2019 12.6 (16:10) 2.9 (00:00) 7.8 6.39 (12:20) 4.44 (00:50) 0 0 0 0 0
26-03-2019 10 (15:40) 2.2 (00:00) 6.1 11.39 (12:40) 6.11 (12:40) 0 0 0 0 0
25-03-2019 9.9 (14:00) 2.6 (00:00) 6.2 6.67 (20:20) 3.61 (20:20) 0 0 0 0 0

Gráficas

Temp. máximas Temp. mínimas Temp. medias Precipitaciones Rachas de viento máximas Velocidades máximas media en intervalos de 10 minutos

Datos horarios

Fecha y hora oficial Temperatura (ºC) Velocidad del viento (km/h) Dirección del viento Racha (km/h) Dirección de racha Precipitación (mm) Presión (hPa) Tendencia (hPa) Humedad (%)
2019-04-23 23:00:00 3.8 4 Nordeste 11 Noroeste 0.4 -- -- 81
2019-04-23 22:00:00 4.2 11 Norte 26 Oeste 1 -- -- 78
2019-04-23 21:00:00 3.6 21 Oeste 46 Noroeste 2.8 -- -- 83
2019-04-23 20:00:00 3.1 5 Noroeste 27 Este 5.6 -- -- 92
2019-04-23 19:00:00 5.9 10 Este 32 Nordeste 0 -- -- 93
2019-04-23 18:00:00 11.2 6 Sudeste 15 Sudoeste 0 -- -- 78
2019-04-23 17:00:00 9.9 4 Este 12 Este 0 -- -- 81
2019-04-23 16:00:00 8.4 8 Este 18 Nordeste 0 -- -- 86
2019-04-23 15:00:00 8.9 7 Este 18 Este 0 -- -- 91
2019-04-23 14:00:00 7.7 3 Sudeste 16 Nordeste 0 -- -- 95
2019-04-23 13:00:00 7.6 11 Este 27 Norte 0 -- -- 96
2019-04-23 12:00:00 8.6 8 Este 18 Este 0.2 -- -- 93
2019-04-23 11:00:00 8.8 4 Este 12 Nordeste 0 -- -- 94
2019-04-23 10:00:00 7.8 4 Sudoeste 9 Este 0 -- -- 95
2019-04-23 09:00:00 7.2 3 Sur 9 Sudoeste 0.2 -- -- 95
2019-04-23 08:00:00 7.1 3 Este 12 Este 0 -- -- 92
2019-04-23 07:00:00 7.7 5 Este 13 Este 0 -- -- 85
2019-04-23 06:00:00 8.5 3 Sudeste 17 Este 0 -- -- 81
2019-04-23 05:00:00 9.7 5 Este 22 Noroeste 0 -- -- 67
2019-04-23 04:00:00 11.1 18 Noroeste 35 Noroeste 0 -- -- 53
2019-04-23 03:00:00 11.7 19 Noroeste 38 Oeste 0 -- -- 53
2019-04-23 02:00:00 11.1 9 Nordeste 18 Nordeste 0 -- -- 62
2019-04-23 01:00:00 11.7 8 Sudeste 34 Sur 0 -- -- 57
2019-04-23 00:00:00 12.3 11 Sur 39 Sur 0 -- -- 51
2019-04-22 23:00:00 11.9 11 Este 35 Sudeste 0 -- -- 57
2019-04-22 22:00:00 11.9 7 Nordeste 21 Nordeste 0 -- -- 58
2019-04-22 21:00:00 12.5 7 Norte 13 Norte 0 -- -- 54
2019-04-22 20:00:00 13.9 5 Sur 19 Sudoeste 0 -- -- 48
2019-04-22 19:00:00 14.1 6 Este 17 Este 0 -- -- 50
2019-04-22 18:00:00 15.4 7 Sudeste 26 Sudoeste 0 -- -- 48
2019-04-22 17:00:00 14.1 10 Sur 22 Sudoeste 0 -- -- 56
2019-04-22 16:00:00 16.8 13 Sur 25 Sur 0 -- -- 43
2019-04-22 15:00:00 15.4 7 Este 19 Nordeste 0 -- -- 55
2019-04-22 14:00:00 14.8 5 Este 18 Este 0 -- -- 58
2019-04-22 13:00:00 14.8 4 Sudeste 11 Sudeste 0 -- -- 57
2019-04-22 12:00:00 13.8 6 Este 13 Este 0 -- -- 56
2019-04-22 11:00:00 12.3 5 Este 13 Este 0 -- -- 60
2019-04-22 10:00:00 10.5 5 Este 8 Este 0 -- -- 66
2019-04-22 09:00:00 8.3 4 Este 7 Este 0 -- -- 71
2019-04-22 08:00:00 7 3 Nordeste 10 Norte 0 -- -- 73
2019-04-22 07:00:00 6.6 4 Nordeste 8 Nordeste 0 -- -- 74
2019-04-22 06:00:00 6.3 3 Nordeste 11 Norte 0 -- -- 80
2019-04-22 05:00:00 6.3 3 Nordeste 9 Norte 0 -- -- 81
2019-04-22 04:00:00 6.6 3 Este 11 Nordeste 0 -- -- 82
2019-04-22 03:00:00 6.7 3 Sudeste 6 Nordeste 0 -- -- 82
2019-04-22 02:00:00 7 3 Nordeste 10 Este 0 -- -- 82
2019-04-22 01:00:00 7.1 5 Nordeste 8 Norte 0 -- -- 80
2019-04-22 00:00:00 6.9 3 Sur 8 Norte 0 -- -- 83
2019-04-21 23:00:00 7.2 4 Sudoeste 9 Sudoeste 0 -- -- 84
2019-04-21 22:00:00 7.7 2 Sudoeste 10 Este 0 -- -- 81
2019-04-21 21:00:00 8.8 6 Este 15 Este 0 -- -- 67
2019-04-21 20:00:00 10 5 Este 24 Este 0 -- -- 64
2019-04-21 19:00:00 10.9 10 Este 21 Este 0 -- -- 64
2019-04-21 18:00:00 12.9 6 Sur 23 Sudeste 0 -- -- 61
2019-04-21 17:00:00 12.4 15 Este 28 Este 0 -- -- 56
2019-04-21 16:00:00 12.7 6 Sur 16 Sur 0 -- -- 58
2019-04-21 15:00:00 13.6 6 Este 13 Este 0 -- -- 58
2019-04-21 14:00:00 12.1 6 Nordeste 15 Nordeste 0 -- -- 50
2019-04-21 13:00:00 12.5 5 Sudeste 13 Oeste 0 -- -- 47
2019-04-21 12:00:00 11.2 5 Sudoeste 16 Sudeste 0 -- -- 57
2019-04-21 11:00:00 11.9 4 Sur 17 Noroeste 0 -- -- 53
2019-04-21 10:00:00 9.6 5 Este 34 Este 0 -- -- 61
2019-04-21 09:00:00 11.1 8 Sudeste 13 Este 0 -- -- 54
2019-04-21 08:00:00 11.3 4 Sudeste 14 Este 0 -- -- 49
2019-04-21 07:00:00 10.8 7 Noroeste 12 Oeste 0 -- -- 59
2019-04-21 06:00:00 9.3 8 Oeste 10 Oeste 0 -- -- 61
2019-04-21 05:00:00 10 4 Nordeste 8 Nordeste 0 -- -- 61
2019-04-21 04:00:00 10.4 6 Norte 12 Norte 0 -- -- 62
2019-04-21 03:00:00 10.1 5 Norte 8 Nordeste 0 -- -- 59
2019-04-21 02:00:00 10.3 5 Norte 10 Norte 0 -- -- 56
2019-04-21 01:00:00 10.6 5 Nordeste 14 Nordeste 0 -- -- 55
2019-04-21 00:00:00 10.7 7 Norte 13 Norte 0 -- -- 50
2019-04-20 23:00:00 10.7 5 Norte 8 Norte 0 -- -- 49
2019-04-20 22:00:00 10.7 4 Nordeste 8 Nordeste 0 -- -- 49
2019-04-20 21:00:00 11.4 6 Norte 9 Nordeste 0 -- -- 46
2019-04-20 20:00:00 12.9 6 Nordeste 17 Nordeste 0 -- -- 41
2019-04-20 19:00:00 15.3 4 Sudeste 12 Este 0 -- -- 42
2019-04-20 18:00:00 15 4 Este 23 Este 0 -- -- 49
2019-04-20 17:00:00 15.6 10 Nordeste 27 Este 0 -- -- 42
2019-04-20 16:00:00 15.7 11 Este 34 Este 0 -- -- 48
2019-04-20 15:00:00 16.2 17 Este 37 Este 0 -- -- 50
2019-04-20 14:00:00 16.5 8 Este 29 Este 0 -- -- 52
2019-04-20 13:00:00 16.5 8 Este 27 Este 0 -- -- 48
2019-04-20 12:00:00 15.5 8 Este 21 Este 0 -- -- 50
2019-04-20 11:00:00 15 10 Este 21 Este 0 -- -- 49
2019-04-20 10:00:00 14.2 6 Sur 9 Sur 0 -- -- 70
2019-04-20 09:00:00 12.2 4 Norte 8 Norte 0 -- -- 75
2019-04-20 08:00:00 10.5 4 Norte 5 Norte 0 -- -- 73
2019-04-20 07:00:00 9.8 4 Nordeste 8 Norte 0 -- -- 65
2019-04-20 06:00:00 10 2 Norte 11 Norte 0 -- -- 60
2019-04-20 05:00:00 10.6 6 Norte 13 Norte 0 -- -- 57
2019-04-20 04:00:00 10.6 7 Nordeste 16 Nordeste 0 -- -- 64
2019-04-20 03:00:00 10.3 5 Nordeste 13 Nordeste 0 -- -- 71
2019-04-20 02:00:00 10.3 3 Noroeste 8 Nordeste 0 -- -- 72
2019-04-20 01:00:00 11.1 5 Nordeste 13 Nordeste 0 -- -- 67
2019-04-20 00:00:00 10.4 10 Nordeste 14 Nordeste 0 -- -- 73
2019-04-19 23:00:00 10.3 0 Calma 9 Este 0 -- -- 76
2019-04-19 22:00:00 10.6 5 Oeste 11 Oeste 0 -- -- 81
2019-04-19 21:00:00 11.3 0 Calma 7 Oeste 0 -- -- 79
2019-04-19 20:00:00 12.5 3 Este 16 Este 0 -- -- 72
2019-04-19 19:00:00 13.4 7 Este 28 Este 0 -- -- 70
2019-04-19 18:00:00 13.2 16 Este 40 Nordeste 0 -- -- 74
2019-04-19 17:00:00 12.8 19 Este 32 Este 0 -- -- 67
2019-04-19 16:00:00 13.3 13 Este 27 Este 0 -- -- 64
2019-04-19 15:00:00 13.3 13 Este 47 Sudeste 0 -- -- 65
2019-04-19 14:00:00 13.6 16 Sudeste 53 Sur 0 -- -- 59
2019-04-19 13:00:00 12.5 18 Sur 35 Sur 0 -- -- 67
2019-04-19 12:00:00 10 15 Este 25 Nordeste 0 -- -- 85
2019-04-19 11:00:00 9.3 8 Este 21 Este 0 -- -- 88
2019-04-19 10:00:00 8.2 7 Nordeste 17 Este 0 -- -- 97
2019-04-19 09:00:00 7.5 13 Este 24 Este 0.2 -- -- 98
2019-04-19 08:00:00 7.1 13 Nordeste 21 Este 0 -- -- 98
2019-04-19 07:00:00 7.1 14 Este 25 Nordeste 0 -- -- 98
2019-04-19 06:00:00 7.1 13 Este 21 Este 0 -- -- 98
2019-04-19 05:00:00 7.2 8 Este 31 Nordeste 0.8 -- -- 98
2019-04-19 04:00:00 7.2 21 Este 30 Este 1.2 -- -- 98
2019-04-19 03:00:00 7.2 13 Este 29 Este 1.6 -- -- 98
2019-04-19 02:00:00 7.2 6 Este 13 Nordeste 2.4 -- -- 98
2019-04-19 01:00:00 7.2 8 Este 17 Este 1.4 -- -- 98
2019-04-19 00:00:00 6.9 9 Nordeste 19 Nordeste 1.2 -- -- 98
2019-04-18 23:00:00 6.8 11 Este 19 Este 1.4 -- -- 97
2019-04-18 22:00:00 6.8 13 Este 22 Este 1 -- -- 97
2019-04-18 21:00:00 6.9 18 Nordeste 30 Este 3 -- -- 97
2019-04-18 20:00:00 7.4 14 Este 21 Nordeste 3.4 -- -- 96
2019-04-18 19:00:00 8.1 4 Este 13 Este 3.2 -- -- 95
2019-04-18 18:00:00 9 4 Este 10 Este 0.4 -- -- 93
2019-04-18 17:00:00 9.2 6 Este 10 Este 0.2 -- -- 90
2019-04-18 16:00:00 8.2 6 Este 17 Este 1 -- -- 96
2019-04-18 15:00:00 8.3 7 Este 12 Este 1.4 -- -- 95
2019-04-18 14:00:00 8.8 3 Este 6 Nordeste 0.4 -- -- 90
2019-04-18 13:00:00 9.6 4 Sudeste 9 Sur 0 -- -- 87
2019-04-18 12:00:00 8.8 3 Sur 8 Sudoeste 0 -- -- 90
2019-04-18 11:00:00 7.7 4 Sudoeste 11 Nordeste 0 -- -- 92
2019-04-18 10:00:00 7.6 4 Sur 11 Este 0 -- -- 93
2019-04-18 09:00:00 7.5 6 Este 18 Este 0 -- -- 92
2019-04-18 08:00:00 7.4 6 Nordeste 17 Este 0 -- -- 92
2019-04-18 07:00:00 8.7 13 Nordeste 20 Nordeste 0 -- -- 79
2019-04-18 06:00:00 9.1 9 Sudeste 31 Sudoeste 0 -- -- 79
2019-04-18 05:00:00 9.7 6 Nordeste 15 Nordeste 0 -- -- 82
2019-04-18 04:00:00 10.4 4 Norte 24 Sudeste 0.2 -- -- 83
2019-04-18 03:00:00 12.2 8 Sudeste 23 Sudeste 0 -- -- 71
2019-04-18 02:00:00 13.5 10 Este 41 Sudoeste 0 -- -- 63
2019-04-18 01:00:00 14.8 14 Sur 49 Sur 0 -- -- 51
2019-04-18 00:00:00 14.2 9 Este 37 Oeste 0 -- -- 58
2019-04-17 23:00:00 15.3 27 Oeste 58 Sur 0 -- -- 49
2019-04-17 22:00:00 16.5 21 Sudoeste 57 Sudoeste 0 -- -- 45
2019-04-17 21:00:00 17 24 Sudoeste 52 Sudoeste 0 -- -- 41
2019-04-17 20:00:00 16.9 18 Sudoeste 42 Sudoeste 0 -- -- 39
2019-04-17 19:00:00 17.7 16 Sudoeste 41 Sur 0 -- -- 41
2019-04-17 18:00:00 17.7 13 Sur 23 Sur 0 -- -- 39
2019-04-17 17:00:00 18.8 5 Nordeste 15 Este 0 -- -- 42
2019-04-17 16:00:00 19.1 6 Sudeste 25 Sudeste 0 -- -- 42
2019-04-17 15:00:00 19.1 11 Sudeste 27 Sudeste 0 -- -- 42
2019-04-17 14:00:00 18 12 Sudeste 30 Sudeste 0 -- -- 47
2019-04-17 13:00:00 17.2 6 Sudeste 22 Sur 0 -- -- 52
2019-04-17 12:00:00 14.5 7 Este 23 Sur 0 -- -- 61
2019-04-17 11:00:00 12.5 8 Este 31 Sur 0 -- -- 62
2019-04-17 10:00:00 11.3 10 Nordeste 19 Nordeste 0 -- -- 64
2019-04-17 09:00:00 11.5 12 Nordeste 36 Oeste 0 -- -- 61
2019-04-17 08:00:00 11.6 5 Nordeste 23 Nordeste 0 -- -- 57
2019-04-17 07:00:00 11.5 10 Nordeste 28 Este 0 -- -- 57
2019-04-17 06:00:00 12.2 13 Nordeste 26 Sur 0 -- -- 52
2019-04-17 05:00:00 14.2 12 Sudoeste 33 Sudoeste 0 -- -- 42
2019-04-17 04:00:00 12.8 10 Nordeste 24 Oeste 0 -- -- 51
2019-04-17 03:00:00 12.4 9 Nordeste 20 Este 0 -- -- 54
2019-04-17 02:00:00 12.3 12 Nordeste 27 Sudeste 0 -- -- 51
2019-04-17 01:00:00 13 9 Este 26 Este 0 -- -- 46
2019-04-17 00:00:00 12.7 4 Este 12 Sudeste 0 -- -- 47
2019-04-16 23:00:00 12.7 5 Nordeste 18 Este 0 -- -- 45
2019-04-16 22:00:00 12.5 6 Nordeste 16 Este 0 -- -- 52
2019-04-16 21:00:00 12.8 7 Este 26 Sudeste 0 -- -- 59
2019-04-16 20:00:00 13 5 Este 10 Este 0 -- -- 71
2019-04-16 19:00:00 13 6 Nordeste 10 Este 0 -- -- 76
2019-04-16 18:00:00 12.8 5 Nordeste 12 Este 0 -- -- 77
2019-04-16 17:00:00 13.6 5 Este 13 Este 0 -- -- 74
2019-04-16 16:00:00 13.7 6 Este 17 Este 0 -- -- 75
2019-04-16 15:00:00 12.8 5 Este 15 Este 0 -- -- 76
2019-04-16 14:00:00 12.3 8 Este 17 Este 0 -- -- 75
2019-04-16 13:00:00 11.3 9 Este 14 Este 0 -- -- 75
2019-04-16 12:00:00 10.5 5 Este 13 Este 0 -- -- 73
2019-04-16 11:00:00 9.2 10 Este 15 Nordeste 0 -- -- 80
2019-04-16 10:00:00 7.2 3 Este 9 Este 0 -- -- 95
2019-04-16 09:00:00 5.1 0 Calma 7 Sudoeste 0 -- -- 95
2019-04-16 08:00:00 4.5 2 Norte 5 Nordeste 0 -- -- 94
2019-04-16 07:00:00 4.8 3 Nordeste 6 Nordeste 0 -- -- 93
2019-04-16 06:00:00 5.2 3 Norte 10 Norte 0 -- -- 91
2019-04-16 05:00:00 5.3 6 Norte 11 Norte 0 -- -- 89
2019-04-16 04:00:00 5.3 5 Norte 9 Noroeste 0 -- -- 90
2019-04-16 03:00:00 5.3 3 Norte 22 Oeste 0 -- -- 88
2019-04-16 02:00:00 6.1 15 Oeste 23 Oeste 0 -- -- 87
2019-04-16 01:00:00 6.3 14 Noroeste 23 Noroeste 0.2 -- -- 91
2019-04-16 00:00:00 6.5 13 Oeste 33 Oeste 0.2 -- -- 91
2019-04-15 23:00:00 6.8 19 Oeste 37 Oeste 0.8 -- -- 87
2019-04-15 22:00:00 7.1 15 Oeste 40 Oeste 1.2 -- -- 91
2019-04-15 21:00:00 7.4 16 Noroeste 28 Noroeste 0.2 -- -- 94
2019-04-15 20:00:00 8 12 Oeste 41 Oeste 0.4 -- -- 93
2019-04-15 19:00:00 8.1 9 Sudoeste 28 Noroeste 1.2 -- -- 93
2019-04-15 18:00:00 8.5 11 Noroeste 28 Oeste 0.4 -- -- 95
2019-04-15 17:00:00 9.5 15 Noroeste 32 Nordeste 0.2 -- -- 95
2019-04-15 16:00:00 12.1 15 Este 23 Nordeste 0 -- -- 90
2019-04-15 15:00:00 13.4 8 Sudoeste 77 Sudoeste 1 -- -- 69
2019-04-15 14:00:00 14.1 40 Oeste 64 Oeste 1.4 -- -- 66
2019-04-15 13:00:00 17.5 6 Sudeste 19 Este 0 -- -- 61
2019-04-15 12:00:00 16.2 6 Este 27 Sur 0 -- -- 64
2019-04-15 11:00:00 16.1 10 Sudeste 26 Sudeste 0 -- -- 62
2019-04-15 10:00:00 14.8 6 Este 17 Nordeste 0 -- -- 65
2019-04-15 09:00:00 15.3 6 Norte 17 Nordeste 0 -- -- 57
2019-04-15 08:00:00 14.8 4 Nordeste 17 Sur 0 -- -- 60
2019-04-15 07:00:00 15.1 7 Este 21 Este 0 -- -- 59
2019-04-15 06:00:00 16.1 9 Oeste 25 Oeste 0 -- -- 53
2019-04-15 05:00:00 14.8 8 Nordeste 13 Norte 0 -- -- 59
2019-04-15 04:00:00 15.2 6 Nordeste 15 Nordeste 0 -- -- 58
2019-04-15 03:00:00 13.4 9 Nordeste 23 Nordeste 0 -- -- 69
2019-04-15 02:00:00 13 8 Nordeste 14 Este 0 -- -- 75
2019-04-15 01:00:00 12.6 6 Noroeste 14 Norte 0 -- -- 81
2019-04-15 00:00:00 11.7 3 Norte 9 Nordeste 0 -- -- 88
2019-04-14 23:00:00 12 6 Nordeste 14 Nordeste 0 -- -- 88
2019-04-14 22:00:00 12.2 4 Nordeste 10 Este 0 -- -- 87
2019-04-14 21:00:00 13 5 Este 12 Este 0 -- -- 83
2019-04-14 20:00:00 14.2 4 Este 11 Este 0 -- -- 77
2019-04-14 19:00:00 15.5 3 Nordeste 14 Este 0 -- -- 71
2019-04-14 18:00:00 16.2 7 Este 14 Este 0 -- -- 68
2019-04-14 17:00:00 16.7 6 Nordeste 13 Este 0 -- -- 65
2019-04-14 16:00:00 17.6 5 Este 14 Sur 0 -- -- 64
2019-04-14 15:00:00 18 8 Sur 17 Sur 0 -- -- 62
2019-04-14 14:00:00 16.4 5 Este 14 Sur 0 -- -- 60
2019-04-14 13:00:00 15.8 6 Sur 15 Sudoeste 0 -- -- 60
2019-04-14 12:00:00 14.1 3 Sur 9 Sur 0 -- -- 56
2019-04-14 11:00:00 12.4 4 Nordeste 7 Este 0 -- -- 57
2019-04-14 10:00:00 11.9 3 Sudeste 6 Sudeste 0 -- -- 65
2019-04-14 09:00:00 11 3 Nordeste 16 Noroeste 0 -- -- 67
2019-04-14 08:00:00 11.4 8 Noroeste 24 Noroeste 0 -- -- 66
2019-04-14 07:00:00 11.6 11 Noroeste 19 Oeste 0 -- -- 67
2019-04-14 06:00:00 10.8 2 Sudeste 18 Noroeste 0 -- -- 60
2019-04-14 05:00:00 11.8 14 Noroeste 21 Oeste 0 -- -- 55
2019-04-14 04:00:00 11.8 2 Este 13 Noroeste 0 -- -- 55
2019-04-14 03:00:00 11.7 6 Noroeste 9 Oeste 0 -- -- 55
2019-04-14 02:00:00 11.7 3 Nordeste 7 Norte 0 -- -- 55
2019-04-14 01:00:00 11.8 0 Calma 3 Sudoeste 0 -- -- 56
2019-04-14 00:00:00 11.8 0 Calma 4 Norte 0 -- -- 53
2019-04-13 23:00:00 12.2 4 Norte 5 Norte 0 -- -- 54
2019-04-13 22:00:00 12.3 4 Noroeste 9 Noroeste 0 -- -- 52
2019-04-13 21:00:00 12.3 6 Oeste 12 Sudoeste 0 -- -- 48
2019-04-13 20:00:00 13.5 5 Sudoeste 9 Sudoeste 0 -- -- 44
2019-04-13 19:00:00 15.6 5 Sudoeste 16 Este 0 -- -- 41
2019-04-13 18:00:00 17 5 Sudeste 20 Nordeste 0 -- -- 43
2019-04-13 17:00:00 16.1 15 Este 20 Nordeste 0 -- -- 46
2019-04-13 16:00:00 16.4 6 Este 14 Este 0 -- -- 44
2019-04-13 15:00:00 16.4 5 Este 14 Este 0 -- -- 51
2019-04-13 14:00:00 17 5 Este 11 Nordeste 0 -- -- 46
2019-04-13 13:00:00 16.4 4 Sudeste 9 Nordeste 0 -- -- 39
2019-04-13 12:00:00 15.4 5 Este 9 Nordeste 0 -- -- 41
2019-04-13 11:00:00 14.9 3 Sudeste 7 Sudeste 0 -- -- 46
2019-04-13 10:00:00 12.5 4 Sudeste 6 Sudeste 0 -- -- 47
2019-04-13 09:00:00 9.7 3 Este 8 Norte 0 -- -- 50
2019-04-13 08:00:00 9 0 Calma 9 Norte 0 -- -- 48
2019-04-13 07:00:00 8.9 6 Norte 8 Norte 0 -- -- 52
2019-04-13 06:00:00 8.7 2 Oeste 9 Norte 0 -- -- 52
2019-04-13 05:00:00 8.7 3 Norte 7 Norte 0 -- -- 55
2019-04-13 04:00:00 8.7 4 Norte 6 Norte 0 -- -- 56
2019-04-13 03:00:00 8.6 0 Calma 10 Norte 0 -- -- 60
2019-04-13 02:00:00 8.5 4 Nordeste 7 Norte 0 -- -- 53
2019-04-13 01:00:00 8.6 4 Norte 6 Norte 0 -- -- 52
2019-04-13 00:00:00 8.8 4 Noroeste 9 Norte 0 -- -- 49
2019-04-12 23:00:00 8.7 6 Norte 10 Norte 0 -- -- 45
2019-04-12 22:00:00 9.1 5 Noroeste 10 Norte 0 -- -- 42
2019-04-12 21:00:00 8.2 4 Oeste 5 Oeste 0 -- -- 87
2019-04-12 20:00:00 9.7 3 Nordeste 14 Sudeste 0 -- -- 81
2019-04-12 19:00:00 11.7 3 Sudoeste 11 Sudoeste 0 -- -- 76
2019-04-12 18:00:00 12.7 6 Sur 12 Sur 0 -- -- 70
2019-04-12 17:00:00 12.3 5 Sudeste 19 Norte 0 -- -- 74
2019-04-12 16:00:00 11.4 6 Este 14 Este 0 -- -- 72
2019-04-12 15:00:00 11 5 Este 16 Este 0 -- -- 73
2019-04-12 14:00:00 11.2 5 Este 18 Sudoeste 0 -- -- 71
2019-04-12 13:00:00 9.9 5 Este 11 Este 0 -- -- 64
2019-04-12 12:00:00 9.3 5 Este 10 Este 0 -- -- 67
2019-04-12 11:00:00 7.7 3 Sudeste 9 Este 0 -- -- 79
2019-04-12 10:00:00 5.8 3 Sur 6 Sur 0 -- -- 82
2019-04-12 09:00:00 3.1 4 Este 9 Nordeste 0 -- -- 91
2019-04-12 08:00:00 2.8 4 Norte 6 Noroeste 0 -- -- 84
2019-04-12 07:00:00 2.8 3 Noroeste 8 Norte 0 -- -- 83
2019-04-12 06:00:00 2.9 3 Norte 7 Norte 0 -- -- 83
2019-04-12 05:00:00 3.3 4 Nordeste 7 Norte 0 -- -- 80
2019-04-12 04:00:00 3.5 6 Noroeste 12 Noroeste 0 -- -- 81
2019-04-12 03:00:00 3.3 6 Oeste 7 Oeste 0 -- -- 94
2019-04-12 02:00:00 3.8 3 Noroeste 6 Sudoeste 0 -- -- 95
2019-04-12 01:00:00 4.2 5 Sudoeste 14 Oeste 0 -- -- 93
2019-04-12 00:00:00 4.6 12 Oeste 18 Noroeste 0 -- -- 87
2019-04-11 23:00:00 5 11 Noroeste 18 Oeste 0 -- -- 88
2019-04-11 22:00:00 5 9 Noroeste 19 Noroeste 0.2 -- -- 90
2019-04-11 21:00:00 5.1 9 Oeste 24 Noroeste 0.6 -- -- 90
2019-04-11 20:00:00 5.5 13 Noroeste 26 Noroeste 0 -- -- 86
2019-04-11 19:00:00 5.9 13 Noroeste 26 Oeste 0 -- -- 85
2019-04-11 18:00:00 6.6 17 Noroeste 32 Norte 0 -- -- 81
2019-04-11 17:00:00 7.9 17 Noroeste 30 Noroeste 0 -- -- 77
2019-04-11 16:00:00 7.3 17 Oeste 28 Oeste 0 -- -- 76
2019-04-11 15:00:00 7.5 21 Noroeste 34 Noroeste 0 -- -- 75
2019-04-11 14:00:00 6.7 21 Noroeste 29 Noroeste 0 -- -- 79
2019-04-11 13:00:00 7.4 15 Noroeste 36 Oeste 0 -- -- 73
2019-04-11 12:00:00 6.1 21 Oeste 32 Oeste 0 -- -- 75
2019-04-11 11:00:00 5.9 21 Oeste 32 Noroeste 0 -- -- 71
2019-04-11 10:00:00 5 22 Noroeste 30 Noroeste 0 -- -- 76
2019-04-11 09:00:00 4.7 14 Noroeste 25 Noroeste 0 -- -- 77
2019-04-11 08:00:00 4.2 19 Noroeste 30 Noroeste 0.2 -- -- 77
2019-04-11 07:00:00 4.1 21 Oeste 29 Oeste 0 -- -- 80
2019-04-11 06:00:00 4 18 Noroeste 28 Noroeste 0 -- -- 81
2019-04-11 05:00:00 4.1 21 Oeste 29 Oeste 0 -- -- 76
2019-04-11 04:00:00 4.2 22 Noroeste 31 Oeste 0 -- -- 70
2019-04-11 03:00:00 4 21 Noroeste 31 Noroeste 0 -- -- 76
2019-04-11 02:00:00 4.1 22 Noroeste 33 Oeste 0.2 -- -- 83
2019-04-11 01:00:00 4.3 16 Noroeste 32 Oeste 0.2 -- -- 86
2019-04-11 00:00:00 4.6 14 Noroeste 29 Noroeste 0.4 -- -- 86
2019-04-10 23:00:00 4.7 21 Oeste 29 Oeste 0.2 -- -- 84
2019-04-10 22:00:00 4.8 16 Noroeste 28 Oeste 0 -- -- 85
2019-04-10 21:00:00 4.9 12 Noroeste 27 Noroeste 0.2 -- -- 84
2019-04-10 20:00:00 5.4 13 Oeste 27 Oeste 0 -- -- 82
2019-04-10 19:00:00 5.3 12 Oeste 29 Oeste 0.8 -- -- 88
2019-04-10 18:00:00 5.8 7 Sudoeste 25 Oeste 0.2 -- -- 92
2019-04-10 17:00:00 6.1 11 Oeste 18 Oeste 0 -- -- 89
2019-04-10 16:00:00 7.8 5 Sur 11 Sur 1 -- -- 92
2019-04-10 15:00:00 6.6 3 Este 8 Sur 0.2 -- -- 92
2019-04-10 14:00:00 6.3 3 Nordeste 8 Sudeste 0 -- -- 88
2019-04-10 13:00:00 5.3 2 Sur 6 Sur 0 -- -- 93
2019-04-10 12:00:00 3.9 2 Este 9 Nordeste 0.2 -- -- 95
2019-04-10 11:00:00 2.4 4 Este 12 Norte 1.8 -- -- 95
2019-04-10 10:00:00 2.3 5 Nordeste 13 Norte 3.2 -- -- 93
2019-04-10 09:00:00 2.6 3 Norte 10 Noroeste 2 -- -- 89
2019-04-10 08:00:00 3.2 9 Noroeste 14 Oeste 1.2 -- -- 86
2019-04-10 07:00:00 3.3 7 Noroeste 12 Noroeste 0 -- -- 86
2019-04-10 06:00:00 3.3 5 Norte 9 Norte 0 -- -- 87
2019-04-10 05:00:00 2.9 4 Nordeste 7 Este 0 -- -- 92
2019-04-10 04:00:00 3.1 4 Nordeste 8 Este 0 -- -- 93
2019-04-10 03:00:00 3.3 2 Norte 7 Norte 0 -- -- 93
2019-04-10 02:00:00 3.5 4 Este 6 Este 0 -- -- 90
2019-04-10 01:00:00 3.5 3 Oeste 25 Oeste 1.6 -- -- 87
2019-04-10 00:00:00 4.4 3 Sudoeste 10 Nordeste 0.8 -- -- 86
2019-04-09 23:00:00 4.4 5 Nordeste 9 Norte 0 -- -- 86
2019-04-09 22:00:00 4.3 5 Sudeste 34 Noroeste 1.8 -- -- 88
2019-04-09 21:00:00 5.3 4 Nordeste 10 Este 0.2 -- -- 86
2019-04-09 20:00:00 5.9 2 Noroeste 6 Sudeste 0.4 -- -- 87
2019-04-09 19:00:00 6.6 5 Este 9 Nordeste 0 -- -- 83
2019-04-09 18:00:00 7 3 Sur 9 Sur 0 -- -- 86
2019-04-09 17:00:00 7.7 4 Sur 10 Sur 0 -- -- 81
2019-04-09 16:00:00 7.1 4 Este 35 Noroeste 0 -- -- 80
2019-04-09 15:00:00 5.7 18 Noroeste 29 Noroeste 0.8 -- -- 79
2019-04-09 14:00:00 9.2 6 Este 14 Este 0 -- -- 71
2019-04-09 13:00:00 8.4 6 Este 12 Este 0 -- -- 66
2019-04-09 12:00:00 8.4 5 Este 13 Este 0 -- -- 68
2019-04-09 11:00:00 7.8 6 Este 13 Nordeste 0 -- -- 69
2019-04-09 10:00:00 6.8 3 Sudeste 12 Nordeste 0 -- -- 72
2019-04-09 09:00:00 5.5 5 Nordeste 9 Sudeste 0 -- -- 70
2019-04-09 08:00:00 5 6 Nordeste 14 Nordeste 0 -- -- 70
2019-04-09 07:00:00 4.8 6 Nordeste 10 Nordeste 0 -- -- 69
2019-04-09 06:00:00 5.3 6 Nordeste 12 Norte 0 -- -- 67
2019-04-09 05:00:00 5.3 5 Nordeste 12 Nordeste 0 -- -- 69
2019-04-09 04:00:00 5.5 5 Norte 11 Nordeste 0 -- -- 66
2019-04-09 03:00:00 5.4 6 Nordeste 12 Nordeste 0 -- -- 67
2019-04-09 02:00:00 4.7 3 Nordeste 10 Norte 0 -- -- 80
2019-04-09 01:00:00 4.3 2 Norte 8 Noroeste 0 -- -- 88
2019-04-09 00:00:00 4.3 2 Oeste 8 Sudoeste 0 -- -- 91
2019-04-08 23:00:00 5.2 5 Sur 21 Nordeste 0 -- -- 88
2019-04-08 22:00:00 5.3 5 Oeste 9 Noroeste 0 -- -- 87
2019-04-08 21:00:00 5.3 3 Norte 10 Este 0 -- -- 86
2019-04-08 20:00:00 6.9 4 Este 10 Nordeste 0 -- -- 81
2019-04-08 19:00:00 7.2 7 Este 15 Este 0 -- -- 80
2019-04-08 18:00:00 7.6 8 Este 26 Nordeste 0 -- -- 81
2019-04-08 17:00:00 8.3 9 Este 19 Nordeste 0 -- -- 82
2019-04-08 16:00:00 9.2 11 Este 21 Sudeste 0 -- -- 77
2019-04-08 15:00:00 10.3 8 Este 15 Este 0 -- -- 75
2019-04-08 14:00:00 10.2 6 Este 15 Sudeste 0 -- -- 84
2019-04-08 13:00:00 7.2 3 Este 6 Sudeste 0.2 -- -- 86
2019-04-08 12:00:00 7 4 Sur 8 Sur 0.2 -- -- 85
2019-04-08 11:00:00 6 3 Sudeste 23 Oeste 0 -- -- 88
2019-04-08 10:00:00 5.8 12 Noroeste 29 Noroeste 0 -- -- 81
2019-04-08 09:00:00 6.1 8 Noroeste 25 Noroeste 0 -- -- 82
2019-04-08 08:00:00 6.1 20 Noroeste 36 Norte 0 -- -- 80
2019-04-08 07:00:00 6.7 6 Oeste 9 Nordeste 0 -- -- 74
2019-04-08 06:00:00 6.7 5 Nordeste 9 Nordeste 0 -- -- 74
2019-04-08 05:00:00 6.5 9 Nordeste 16 Nordeste 0 -- -- 75
2019-04-08 04:00:00 6.2 6 Nordeste 13 Nordeste 0 -- -- 76
2019-04-08 03:00:00 6.4 3 Nordeste 18 Noroeste 0 -- -- 73
2019-04-08 02:00:00 6.4 8 Nordeste 18 Noroeste 0 -- -- 73
2019-04-08 01:00:00 5.8 8 Nordeste 13 Este 0 -- -- 77
2019-04-08 00:00:00 5.2 6 Nordeste 12 Nordeste 0 -- -- 80
2019-04-07 23:00:00 4.8 7 Nordeste 16 Nordeste 0 -- -- 82
2019-04-07 22:00:00 5.2 9 Este 18 Nordeste 0.6 -- -- 85
2019-04-07 21:00:00 6.3 6 Este 10 Este 0 -- -- 76
2019-04-07 20:00:00 6.5 3 Sudoeste 10 Sur 0 -- -- 80
2019-04-07 19:00:00 7.2 4 Este 10 Este 0 -- -- 74
2019-04-07 18:00:00 7.7 5 Este 15 Este 0 -- -- 70
2019-04-07 17:00:00 8.9 8 Este 17 Sudeste 0 -- -- 65
2019-04-07 16:00:00 9.1 9 Este 22 Este 0 -- -- 63
2019-04-07 15:00:00 8.6 6 Este 15 Este 0 -- -- 64
2019-04-07 14:00:00 9.3 5 Este 15 Nordeste 0 -- -- 62
2019-04-07 13:00:00 9.6 9 Este 17 Este 0 -- -- 58
2019-04-07 12:00:00 8.7 5 Sudeste 13 Sur 0 -- -- 64
2019-04-07 11:00:00 6.3 7 Sur 28 Oeste 0 -- -- 70
2019-04-07 10:00:00 4.3 12 Oeste 29 Oeste 0 -- -- 70
2019-04-07 09:00:00 3.4 15 Oeste 31 Oeste 0 -- -- 71
2019-04-07 08:00:00 3.1 19 Noroeste 38 Noroeste 0 -- -- 73
2019-04-07 07:00:00 3 20 Oeste 36 Noroeste 0 -- -- 73
2019-04-07 06:00:00 2.3 17 Noroeste 35 Oeste 0 -- -- 81
2019-04-07 05:00:00 2.9 20 Oeste 41 Oeste 0 -- -- 76
2019-04-07 04:00:00 2.3 19 Oeste 39 Oeste 0.4 -- -- 81
2019-04-07 03:00:00 1.1 15 Oeste 32 Oeste 0.8 -- -- 91
2019-04-07 02:00:00 1.1 17 Oeste 41 Noroeste 0.6 -- -- 89
2019-04-07 01:00:00 2.3 18 Oeste 36 Oeste 0.4 -- -- 83
2019-04-07 00:00:00 2.3 20 Noroeste 30 Oeste 0.6 -- -- 86
2019-04-06 23:00:00 2.6 12 Oeste 36 Oeste 0 -- -- 87
2019-04-06 22:00:00 2.5 13 Oeste 28 Oeste 0.2 -- -- 88
2019-04-06 21:00:00 1.7 4 Nordeste 17 Oeste 0 -- -- 92
2019-04-06 20:00:00 1.6 13 Oeste 25 Oeste 2.2 -- -- 91
2019-04-06 19:00:00 1.3 27 Oeste 36 Oeste 2.8 -- -- 91
2019-04-06 18:00:00 3.8 14 Noroeste 30 Norte 0.2 -- -- 79
2019-04-06 17:00:00 5.9 15 Nordeste 31 Este 0 -- -- 64
2019-04-06 16:00:00 8.9 13 Este 28 Este 0 -- -- 56
2019-04-06 15:00:00 7.9 6 Este 16 Este 0 -- -- 54
2019-04-06 14:00:00 7.1 12 Oeste 23 Oeste 0 -- -- 50
2019-04-06 13:00:00 7.7 8 Nordeste 22 Sudoeste 0 -- -- 52
2019-04-06 12:00:00 9.4 6 Sudeste 19 Este 0 -- -- 48
2019-04-06 11:00:00 7.2 7 Este 14 Este 0 -- -- 56
2019-04-06 10:00:00 5.4 4 Nordeste 13 Este 0 -- -- 61
2019-04-06 09:00:00 2.7 4 Nordeste 12 Norte 0 -- -- 71
2019-04-06 08:00:00 1.8 9 Nordeste 13 Nordeste 0 -- -- 73
2019-04-06 07:00:00 1.8 3 Norte 13 Nordeste 0 -- -- 74
2019-04-06 06:00:00 1.5 5 Nordeste 10 Norte 0 -- -- 81
2019-04-06 05:00:00 1.3 4 Nordeste 13 Norte 0 -- -- 88
2019-04-06 04:00:00 1.7 4 Nordeste 7 Norte 0 -- -- 86
2019-04-06 03:00:00 2 3 Nordeste 8 Nordeste 0 -- -- 85
2019-04-06 02:00:00 2.3 5 Norte 8 Norte 0 -- -- 82
2019-04-06 01:00:00 2.6 3 Nordeste 11 Oeste 0 -- -- 85
2019-04-06 00:00:00 2.9 5 Sudoeste 13 Oeste 0 -- -- 82
2019-04-05 23:00:00 2.6 11 Noroeste 19 Noroeste 0 -- -- 83
2019-04-05 22:00:00 3.3 5 Sur 25 Noroeste 0.2 -- -- 90
2019-04-05 21:00:00 4.4 13 Oeste 21 Oeste 0 -- -- 76
2019-04-05 20:00:00 5.8 6 Sur 15 Norte 0 -- -- 83
2019-04-05 19:00:00 8.1 9 Norte 27 Oeste 0 -- -- 64
2019-04-05 18:00:00 9.5 8 Sur 21 Nordeste 0 -- -- 69
2019-04-05 17:00:00 9.3 9 Nordeste 26 Sudoeste 0 -- -- 56
2019-04-05 16:00:00 10.8 13 Sur 29 Sur 0 -- -- 58
2019-04-05 15:00:00 10.2 10 Sur 23 Sur 0 -- -- 58
2019-04-05 14:00:00 9.8 6 Sudeste 23 Este 0 -- -- 72
2019-04-05 13:00:00 6.5 6 Sur 14 Sur 0 -- -- 83
2019-04-05 12:00:00 4.7 3 Norte 13 Sudoeste 0 -- -- 88
2019-04-05 11:00:00 3.8 5 Este 15 Este 0 -- -- 92
2019-04-05 10:00:00 3 7 Nordeste 18 Nordeste 0 -- -- 94
2019-04-05 09:00:00 2.5 9 Nordeste 13 Este 0 -- -- 93
2019-04-05 08:00:00 2.4 3 Nordeste 14 Nordeste 0 -- -- 86
2019-04-05 07:00:00 3 8 Nordeste 19 Nordeste 0 -- -- 79
2019-04-05 06:00:00 3.2 9 Nordeste 17 Nordeste 0 -- -- 78
2019-04-05 05:00:00 3.2 13 Nordeste 24 Sudeste 0 -- -- 78
2019-04-05 04:00:00 3.3 9 Nordeste 18 Sudeste 0 -- -- 76
2019-04-05 03:00:00 3.6 12 Nordeste 22 Nordeste 0 -- -- 73
2019-04-05 02:00:00 3.5 9 Nordeste 17 Nordeste 0 -- -- 74
2019-04-05 01:00:00 3.7 9 Nordeste 17 Nordeste 0 -- -- 73
2019-04-05 00:00:00 4.1 8 Nordeste 18 Nordeste 0 -- -- 71
2019-04-04 23:00:00 4.1 12 Este 23 Este 0 -- -- 71
2019-04-04 22:00:00 4.5 5 Este 18 Este 0 -- -- 68
2019-04-04 21:00:00 5 5 Este 22 Nordeste 0 -- -- 64
2019-04-04 20:00:00 5.7 13 Nordeste 21 Oeste 0 -- -- 59
2019-04-04 19:00:00 7 18 Oeste 40 Oeste 0 -- -- 49
2019-04-04 18:00:00 6.6 6 Nordeste 17 Este 0 -- -- 52
2019-04-04 17:00:00 7.7 5 Este 17 Este 0 -- -- 48
2019-04-04 16:00:00 8.5 3 Nordeste 15 Sur 0 -- -- 49
2019-04-04 15:00:00 7.9 4 Norte 13 Sur 0 -- -- 47
2019-04-04 14:00:00 7.5 6 Sudeste 13 Sudeste 0 -- -- 53
2019-04-04 13:00:00 5.8 4 Este 11 Este 1 -- -- 52
2019-04-04 12:00:00 4.8 6 Este 11 Nordeste 3.6 -- -- 58
2019-04-04 11:00:00 3.6 3 Este 12 Sudeste 3.2 -- -- 62
2019-04-04 10:00:00 2.2 8 Sur 32 Oeste 0.8 -- -- 66
2019-04-04 09:00:00 1.1 24 Oeste 44 Oeste 0 -- -- 65
2019-04-04 08:00:00 0.5 28 Noroeste 45 Sudoeste 0 -- -- 70
2019-04-04 07:00:00 0.3 28 Oeste 48 Oeste 0 -- -- 74
2019-04-04 06:00:00 0.1 26 Oeste 41 Oeste 0 -- -- 77
2019-04-04 05:00:00 0.1 20 Oeste 49 Oeste 0 -- -- 76
2019-04-04 04:00:00 0.1 23 Oeste 56 Oeste 0 -- -- 80
2019-04-04 03:00:00 -0.3 19 Oeste 42 Oeste 0 -- -- 86
2019-04-04 02:00:00 -1.1 18 Oeste 37 Oeste 0 -- -- 93
2019-04-04 01:00:00 -0.9 23 Oeste 38 Oeste 0 -- -- 94
2019-04-04 00:00:00 -0.4 13 Oeste 34 Oeste 0 -- -- 88
2019-04-03 23:00:00 -0.4 25 Oeste 42 Oeste 0 -- -- 90
2019-04-03 22:00:00 -0.8 2 Sur 35 Norte 0 -- -- 93
2019-04-03 21:00:00 0.3 16 Oeste 47 Oeste 0.2 -- -- 82
2019-04-03 20:00:00 0.5 30 Oeste 54 Oeste 0.2 -- -- 81
2019-04-03 19:00:00 -0.1 23 Oeste 50 Oeste 0.8 -- -- 86
2019-04-03 18:00:00 0.5 29 Oeste 57 Sudoeste 0 -- -- 83
2019-04-03 17:00:00 0.5 25 Oeste 53 Oeste 0.4 -- -- 84
2019-04-03 16:00:00 0.1 15 Oeste 52 Oeste 1 -- -- 86
2019-04-03 15:00:00 0.5 23 Oeste 72 Oeste 1.2 -- -- 85
2019-04-03 14:00:00 0.1 28 Oeste 53 Oeste 0 -- -- 93
2019-04-03 13:00:00 1.2 22 Oeste 49 Oeste 0 -- -- 84
2019-04-03 12:00:00 1.5 31 Oeste 51 Oeste 0.4 -- -- 84
2019-04-03 11:00:00 0.5 27 Oeste 48 Oeste 0.4 -- -- 91
2019-04-03 10:00:00 1.9 31 Oeste 62 Oeste 0.4 -- -- 79
2019-04-03 09:00:00 1.4 21 Oeste 50 Oeste 0.2 -- -- 84
2019-04-03 08:00:00 1.9 18 Oeste 46 Oeste 0.6 -- -- 82
2019-04-03 07:00:00 1.6 13 Noroeste 32 Oeste 0.6 -- -- 88
2019-04-03 06:00:00 2 17 Noroeste 36 Oeste 0.6 -- -- 88
2019-04-03 05:00:00 2.6 16 Oeste 40 Oeste 0 -- -- 85
2019-04-03 04:00:00 2.6 19 Oeste 47 Noroeste 0.2 -- -- 84
2019-04-03 03:00:00 2.8 18 Noroeste 32 Noroeste 0.4 -- -- 89
2019-04-03 02:00:00 3 14 Oeste 31 Noroeste 0.2 -- -- 92
2019-04-03 01:00:00 3.4 14 Oeste 39 Oeste 0.2 -- -- 92
2019-04-03 00:00:00 3.5 14 Noroeste 46 Noroeste 0.2 -- -- 90
2019-04-02 23:00:00 4.2 21 Noroeste 36 Noroeste 0 -- -- 90
2019-04-02 22:00:00 4.4 21 Oeste 42 Oeste 0 -- -- 89
2019-04-02 21:00:00 4.3 20 Noroeste 36 Noroeste 0.4 -- -- 91
2019-04-02 20:00:00 5.4 13 Oeste 28 Oeste 0 -- -- 93
2019-04-02 19:00:00 5.3 12 Noroeste 27 Oeste 0 -- -- 91
2019-04-02 18:00:00 6.6 9 Oeste 15 Oeste 0 -- -- 88
2019-04-02 17:00:00 8 9 Oeste 20 Noroeste 0 -- -- 76
2019-04-02 16:00:00 10.3 8 Sur 30 Norte 0 -- -- 74
2019-04-02 15:00:00 9.4 11 Nordeste 22 Nordeste 0 -- -- 72
2019-04-02 14:00:00 11.4 5 Sudeste 15 Sudeste 0 -- -- 67
2019-04-02 13:00:00 12 7 Este 13 Este 0 -- -- 63
2019-04-02 12:00:00 11 6 Sudeste 17 Este 0 -- -- 66
2019-04-02 11:00:00 7.9 10 Oeste 26 Oeste 0 -- -- 73
2019-04-02 10:00:00 6.5 15 Oeste 28 Oeste 0 -- -- 78
2019-04-02 09:00:00 5.1 4 Nordeste 5 Nordeste 0 -- -- 76
2019-04-02 08:00:00 5.8 3 Nordeste 18 Noroeste 0 -- -- 62
2019-04-02 07:00:00 7.7 18 Noroeste 22 Oeste 0 -- -- 56
2019-04-02 06:00:00 7.5 15 Oeste 19 Noroeste 0 -- -- 61
2019-04-02 05:00:00 6.5 3 Sur 10 Noroeste 0 -- -- 63
2019-04-02 04:00:00 6.4 2 Sudeste 7 Sur 0 -- -- 65
2019-04-02 03:00:00 7.1 3 Oeste 11 Noroeste 0 -- -- 64
2019-04-02 02:00:00 7.2 0 Calma 9 Norte 0 -- -- 64
2019-04-02 01:00:00 7.4 5 Norte 9 Norte 0 -- -- 63
2019-04-02 00:00:00 7.6 0 Calma 17 Norte 0 -- -- 62
2019-04-01 23:00:00 7.9 6 Noroeste 17 Norte 0 -- -- 63
2019-04-01 22:00:00 8.2 12 Norte 22 Norte 0 -- -- 60
2019-04-01 21:00:00 8.6 14 Nordeste 19 Norte 0 -- -- 56
2019-04-01 20:00:00 9 14 Nordeste 25 Norte 0 -- -- 57
2019-04-01 19:00:00 9.8 16 Nordeste 23 Norte 0 -- -- 63
2019-04-01 18:00:00 12.4 9 Sur 28 Nordeste 0 -- -- 64
2019-04-01 17:00:00 12.3 16 Este 31 Oeste 0 -- -- 61
2019-04-01 16:00:00 12.1 8 Norte 20 Nordeste 0 -- -- 55
2019-04-01 15:00:00 11.5 8 Sudeste 19 Nordeste 0 -- -- 51
2019-04-01 14:00:00 10.7 8 Este 22 Este 0 -- -- 59
2019-04-01 13:00:00 12 5 Este 15 Nordeste 0 -- -- 55
2019-04-01 12:00:00 11.9 10 Este 15 Este 0 -- -- 51
2019-04-01 11:00:00 12 4 Este 7 Este 0 -- -- 48
2019-04-01 10:00:00 9.5 2 Este 4 Nordeste 0 -- -- 49
2019-04-01 09:00:00 6.8 4 Nordeste 6 Norte 0 -- -- 51
2019-04-01 08:00:00 6.7 6 Norte 10 Norte 0 -- -- 48
2019-04-01 07:00:00 6.5 5 Nordeste 7 Nordeste 0 -- -- 53
2019-04-01 06:00:00 7.1 0 Calma 12 Norte 0 -- -- 53
2019-04-01 05:00:00 6.4 6 Nordeste 10 Norte 0 -- -- 58
2019-04-01 04:00:00 7.5 5 Norte 11 Norte 0 -- -- 54
2019-04-01 03:00:00 8.1 6 Norte 11 Norte 0 -- -- 50
2019-04-01 02:00:00 8.1 7 Norte 10 Norte 0 -- -- 48
2019-04-01 01:00:00 8.8 7 Norte 12 Norte 0 -- -- 47
2019-04-01 00:00:00 9 8 Norte 12 Norte 0 -- -- 47
2019-03-31 23:00:00 9.2 5 Norte 9 Norte 0 -- -- 51
2019-03-31 22:00:00 9.2 5 Norte 8 Este 0 -- -- 54
2019-03-31 21:00:00 9.9 4 Este 21 Nordeste 0 -- -- 49
2019-03-31 20:00:00 10.8 14 Nordeste 24 Este 0 -- -- 51
2019-03-31 19:00:00 12.3 16 Este 29 Este 0 -- -- 50
2019-03-31 18:00:00 11.9 15 Nordeste 33 Este 0 -- -- 54
2019-03-31 17:00:00 13.1 15 Este 32 Este 0 -- -- 52
2019-03-31 16:00:00 14.2 15 Este 27 Este 0 -- -- 45
2019-03-31 15:00:00 14.8 15 Este 28 Este 0 -- -- 43
2019-03-31 14:00:00 15.5 9 Este 23 Nordeste 0 -- -- 40
2019-03-31 13:00:00 15.1 8 Este 18 Nordeste 0 -- -- 36
2019-03-31 12:00:00 13.7 10 Nordeste 19 Nordeste 0 -- -- 37
2019-03-31 11:00:00 13.9 3 Este 9 Sudeste 0 -- -- 48
2019-03-31 10:00:00 11.6 4 Este 10 Nordeste 0 -- -- 47
2019-03-31 09:00:00 9.2 7 Nordeste 10 Norte 0 -- -- 53
2019-03-31 08:00:00 8.5 5 Nordeste 12 Nordeste 0 -- -- 53
2019-03-31 07:00:00 8.8 7 Nordeste 10 Norte 0 -- -- 57
2019-03-31 06:00:00 8.8 4 Norte 10 Nordeste 0 -- -- 59
2019-03-31 05:00:00 8.9 6 Nordeste 9 Norte 0 -- -- 61
2019-03-31 03:00:00 9.6 3 Nordeste 9 Norte 0 -- -- 61
2019-03-31 01:00:00 9.8 7 Norte 12 Norte 0 -- -- 58
2019-03-31 00:00:00 10.3 6 Norte 8 Norte 0 -- -- 59
2019-03-30 23:00:00 10.4 4 Norte 8 Norte 0 -- -- 59
2019-03-30 22:00:00 10.3 5 Este 11 Norte 0 -- -- 58
2019-03-30 21:00:00 10.3 4 Norte 14 Noroeste 0 -- -- 58
2019-03-30 20:00:00 11.1 12 Noroeste 21 Noroeste 0 -- -- 53
2019-03-30 19:00:00 10.9 3 Oeste 12 Nordeste 0 -- -- 56
2019-03-30 18:00:00 11.8 0 Calma 8 Oeste 0 -- -- 55
2019-03-30 17:00:00 12.7 3 Sudoeste 9 Sudoeste 0 -- -- 48
2019-03-30 16:00:00 12.9 5 Sur 15 Nordeste 0 -- -- 46
2019-03-30 15:00:00 12.2 10 Nordeste 25 Este 0 -- -- 43
2019-03-30 14:00:00 14 5 Sur 14 Este 0 -- -- 45
2019-03-30 13:00:00 15.6 9 Este 17 Nordeste 0 -- -- 35
2019-03-30 12:00:00 16.2 5 Sudeste 17 Sudeste 0 -- -- 37
2019-03-30 11:00:00 15.2 4 Este 17 Sudeste 0 -- -- 35
2019-03-30 10:00:00 14 6 Sudeste 16 Nordeste 0 -- -- 36
2019-03-30 09:00:00 11.8 6 Este 11 Nordeste 0 -- -- 39
2019-03-30 08:00:00 8.9 7 Nordeste 13 Nordeste 0 -- -- 44
2019-03-30 07:00:00 8.4 8 Nordeste 15 Nordeste 0 -- -- 44
2019-03-30 06:00:00 8.3 9 Nordeste 17 Nordeste 0 -- -- 45
2019-03-30 05:00:00 8.5 10 Nordeste 15 Nordeste 0 -- -- 45
2019-03-30 04:00:00 9.5 9 Nordeste 14 Nordeste 0 -- -- 44
2019-03-30 03:00:00 9.8 9 Nordeste 17 Este 0 -- -- 44
2019-03-30 02:00:00 10.1 8 Nordeste 14 Nordeste 0 -- -- 42
2019-03-30 01:00:00 10.1 8 Nordeste 12 Nordeste 0 -- -- 45
2019-03-30 00:00:00 10.6 3 Noroeste 8 Norte 0 -- -- 46
2019-03-29 23:00:00 10.2 5 Norte 9 Norte 0 -- -- 49
2019-03-29 22:00:00 10.4 3 Nordeste 8 Nordeste 0 -- -- 49
2019-03-29 21:00:00 10 3 Noroeste 8 Norte 0 -- -- 51
2019-03-29 20:00:00 9.9 3 Sudoeste 5 Sur 0 -- -- 67
2019-03-29 19:00:00 12.4 3 Sudoeste 8 Sudoeste 0 -- -- 61
2019-03-29 18:00:00 14.2 3 Sur 10 Sudoeste 0 -- -- 58
2019-03-29 17:00:00 15.3 5 Sur 10 Sudoeste 0 -- -- 52
2019-03-29 16:00:00 15.5 6 Sur 14 Sur 0 -- -- 52
2019-03-29 15:00:00 15.8 7 Sur 12 Sudoeste 0 -- -- 46
2019-03-29 14:00:00 15 6 Sur 13 Sur 0 -- -- 49
2019-03-29 13:00:00 14.1 4 Este 13 Sur 0 -- -- 47
2019-03-29 12:00:00 14.2 3 Sudeste 10 Sur 0 -- -- 45
2019-03-29 11:00:00 12.7 4 Este 12 Este 0 -- -- 40
2019-03-29 10:00:00 11.1 6 Este 12 Este 0 -- -- 40
2019-03-29 09:00:00 9.5 0 Calma 5 Sudoeste 0 -- -- 56
2019-03-29 08:00:00 7.2 0 Calma 8 Este 0 -- -- 53
2019-03-29 07:00:00 6.6 6 Este 10 Nordeste 0 -- -- 55
2019-03-29 06:00:00 7.3 2 Este 10 Nordeste 0 -- -- 53
2019-03-29 05:00:00 6.6 6 Nordeste 12 Sudeste 0 -- -- 61
2019-03-29 04:00:00 5.9 3 Sur 6 Sudeste 0 -- -- 69
2019-03-29 03:00:00 5.8 0 Calma 5 Nordeste 0 -- -- 74
2019-03-29 02:00:00 5.8 2 Nordeste 9 Nordeste 0 -- -- 74
2019-03-29 01:00:00 5.8 6 Nordeste 10 Nordeste 0 -- -- 75
2019-03-29 00:00:00 6.5 6 Nordeste 12 Nordeste 0 -- -- 63
2019-03-28 23:00:00 7.1 8 Nordeste 14 Nordeste 0 -- -- 56
2019-03-28 22:00:00 7.2 10 Nordeste 16 Nordeste 0 -- -- 62
2019-03-28 21:00:00 6.9 0 Calma 6 Oeste 0 -- -- 76
2019-03-28 20:00:00 7.1 4 Nordeste 7 Nordeste 0 -- -- 82
2019-03-28 19:00:00 9.7 3 Nordeste 10 Sur 0 -- -- 70
2019-03-28 18:00:00 10.7 5 Sudoeste 10 Sudoeste 0 -- -- 70
2019-03-28 17:00:00 13 3 Sur 12 Sur 0 -- -- 61
2019-03-28 16:00:00 13.1 6 Sur 12 Sur 0 -- -- 62
2019-03-28 15:00:00 13.2 6 Sur 14 Sudeste 0 -- -- 60
2019-03-28 14:00:00 11.4 4 Este 15 Este 0 -- -- 60
2019-03-28 13:00:00 11.3 5 Este 14 Sudeste 0 -- -- 59
2019-03-28 12:00:00 10.4 8 Este 15 Este 0 -- -- 51
2019-03-28 11:00:00 10 9 Este 14 Este 0 -- -- 37
2019-03-28 10:00:00 8.3 9 Este 16 Este 0 -- -- 45
2019-03-28 09:00:00 7.2 9 Este 13 Este 0 -- -- 43
2019-03-28 08:00:00 6.1 4 Nordeste 12 Este 0 -- -- 32
2019-03-28 07:00:00 4.6 4 Nordeste 8 Nordeste 0 -- -- 33
2019-03-28 06:00:00 4.9 5 Nordeste 9 Norte 0 -- -- 34
2019-03-28 05:00:00 3.9 4 Nordeste 8 Nordeste 0 -- -- 42
2019-03-28 04:00:00 4.1 6 Norte 12 Este 0 -- -- 36
2019-03-28 03:00:00 3.7 7 Nordeste 11 Nordeste 0 -- -- 57
2019-03-28 02:00:00 3.5 4 Nordeste 8 Nordeste 0 -- -- 72
2019-03-28 01:00:00 3.4 3 Norte 9 Este 0 -- -- 78
2019-03-28 00:00:00 3.4 0 Calma 6 Este 0 -- -- 89
2019-03-27 23:00:00 4.2 3 Sudoeste 4 Oeste 0 -- -- 64
2019-03-27 22:00:00 4.5 0 Calma 5 Sudoeste 0 -- -- 75
2019-03-27 21:00:00 5 3 Nordeste 4 Nordeste 0 -- -- 70
2019-03-27 20:00:00 4.6 3 Oeste 7 Sudoeste 0 -- -- 90
2019-03-27 19:00:00 7.5 4 Sudoeste 9 Sudoeste 0 -- -- 78
2019-03-27 18:00:00 10.2 5 Sur 10 Sur 0 -- -- 68
2019-03-27 17:00:00 12.2 5 Sur 11 Sur 0 -- -- 60
2019-03-27 16:00:00 12.3 8 Sur 13 Sur 0 -- -- 60
2019-03-27 15:00:00 10.7 7 Este 14 Este 0 -- -- 54
2019-03-27 14:00:00 10.2 8 Nordeste 16 Este 0 -- -- 54
2019-03-27 13:00:00 11.3 6 Este 23 Este 0 -- -- 43
2019-03-27 12:00:00 10.1 13 Este 19 Este 0 -- -- 31
2019-03-27 11:00:00 9.3 13 Este 19 Este 0 -- -- 30
2019-03-27 10:00:00 7.5 14 Nordeste 22 Este 0 -- -- 40
2019-03-27 09:00:00 7 13 Nordeste 17 Este 0 -- -- 36
2019-03-27 08:00:00 4.4 11 Nordeste 17 Este 0 -- -- 43
2019-03-27 07:00:00 4.6 12 Nordeste 17 Nordeste 0 -- -- 40
2019-03-27 06:00:00 4.7 12 Nordeste 16 Nordeste 0 -- -- 42
2019-03-27 05:00:00 4.5 10 Nordeste 15 Nordeste 0 -- -- 46
2019-03-27 04:00:00 4.1 10 Nordeste 19 Este 0 -- -- 49
2019-03-27 03:00:00 3.1 8 Este 16 Nordeste 0 -- -- 62
2019-03-27 02:00:00 3.8 14 Nordeste 20 Nordeste 0 -- -- 54
2019-03-27 01:00:00 3.5 13 Nordeste 21 Norte 0 -- -- 58
2019-03-27 00:00:00 3.7 13 Nordeste 25 Nordeste 0 -- -- 61
2019-03-26 23:00:00 3.7 15 Nordeste 27 Nordeste 0 -- -- 62
2019-03-26 22:00:00 4.3 14 Nordeste 22 Nordeste 0 -- -- 56
2019-03-26 21:00:00 5.5 9 Nordeste 19 Nordeste 0 -- -- 38
2019-03-26 20:00:00 5 13 Nordeste 18 Nordeste 0 -- -- 60
2019-03-26 19:00:00 5.8 9 Este 16 Este 0 -- -- 70
2019-03-26 18:00:00 8.1 6 Este 19 Sudeste 0 -- -- 66
2019-03-26 17:00:00 9.4 8 Sudeste 22 Este 0 -- -- 61
2019-03-26 16:00:00 9.3 9 Este 21 Nordeste 0 -- -- 60
2019-03-26 15:00:00 9.8 8 Este 29 Este 0 -- -- 59
2019-03-26 14:00:00 9.6 13 Este 31 Este 0 -- -- 49
2019-03-26 13:00:00 9.4 22 Este 41 Este 0 -- -- 43
2019-03-26 12:00:00 8.5 13 Este 28 Nordeste 0 -- -- 49
2019-03-26 11:00:00 6.4 11 Este 21 Nordeste 0 -- -- 62
2019-03-26 10:00:00 5.1 10 Este 24 Nordeste 0 -- -- 72
2019-03-26 09:00:00 3.9 11 Nordeste 29 Este 0 -- -- 72
2019-03-26 08:00:00 2.4 14 Nordeste 27 Sudeste 0 -- -- 77
2019-03-26 07:00:00 2.3 9 Este 28 Este 0 -- -- 87
2019-03-26 06:00:00 2.9 9 Este 30 Este 0 -- -- 94
2019-03-26 05:00:00 3.3 12 Nordeste 22 Este 0 -- -- 90
2019-03-26 04:00:00 3.4 11 Este 20 Este 0 -- -- 86
2019-03-26 03:00:00 3.5 7 Este 16 Este 0 -- -- 86
2019-03-26 02:00:00 3.4 4 Sudeste 12 Este 0 -- -- 83
2019-03-26 01:00:00 2.6 6 Este 17 Sudeste 0 -- -- 85
2019-03-26 00:00:00 2.6 3 Nordeste 14 Nordeste 0 -- -- 94
2019-03-25 23:00:00 3.1 4 Sudeste 16 Este 0 -- -- 94
2019-03-25 22:00:00 3.3 2 Este 9 Este 0 -- -- 91
2019-03-25 21:00:00 3.9 4 Este 24 Norte 0 -- -- 90
2019-03-25 20:00:00 4.5 6 Nordeste 16 Nordeste 0 -- -- 89
2019-03-25 19:00:00 7.2 3 Sur 10 Este 0 -- -- 78
2019-03-25 18:00:00 7.1 7 Nordeste 15 Este 0 -- -- 73
2019-03-25 17:00:00 8.4 7 Este 15 Sudeste 0 -- -- 71
2019-03-25 16:00:00 9.1 10 Este 19 Este 0 -- -- 65
2019-03-25 15:00:00 8.9 9 Este 18 Este 0 -- -- 69
2019-03-25 14:00:00 9.9 8 Este 22 Este 0 -- -- 64
2019-03-25 13:00:00 9.1 6 Este 15 Este 0 -- -- 69
2019-03-25 12:00:00 6.6 8 Este 17 Este 0 -- -- 82
2019-03-25 11:00:00 5.6 9 Nordeste 17 Este 0 -- -- 91
2019-03-25 10:00:00 6.1 3 Este 9 Nordeste 0 -- -- 92
2019-03-25 09:00:00 5.3 4 Este 9 Sudeste 0 -- -- 96
2019-03-25 08:00:00 4.7 4 Este 14 Este 0 -- -- 96
2019-03-25 07:00:00 5 2 Sudeste 6 Sudeste 0 -- -- 94
2019-03-25 06:00:00 5.5 4 Oeste 7 Oeste 0 -- -- 91
2019-03-25 05:00:00 5.3 2 Oeste 10 Oeste 0 -- -- 89
2019-03-25 04:00:00 5.2 9 Oeste 13 Oeste 0 -- -- 89
2019-03-25 03:00:00 4.7 6 Noroeste 12 Nordeste 0 -- -- 92
2019-03-25 02:00:00 4.5 2 Nordeste 12 Oeste 0 -- -- 92
2019-03-25 01:00:00 4.9 8 Oeste 12 Oeste 0 -- -- 91
2019-03-25 00:00:00 5.2 8 Sudoeste 9 Oeste 0 -- -- 84